createdAt,value
2018-08-10T00:00:33.190Z,18.86
2018-08-10T00:03:36.506Z,18.86
2018-08-10T00:06:39.519Z,19.35
2018-08-10T00:09:42.655Z,19.05
2018-08-10T00:12:45.785Z,19.12
2018-08-10T00:15:48.961Z,19.28
2018-08-10T00:18:52.082Z,19.19
2018-08-10T00:21:55.220Z,18.96
2018-08-10T00:24:58.424Z,19.09
2018-08-10T00:28:01.723Z,19.16
2018-08-10T00:31:04.982Z,19.35
2018-08-10T00:34:08.201Z,19.40
2018-08-10T00:37:11.341Z,19.00
2018-08-10T00:40:17.798Z,18.75
2018-08-10T00:43:20.964Z,18.79
2018-08-10T00:46:24.102Z,18.73
2018-08-10T00:49:27.218Z,19.13
2018-08-10T00:52:30.406Z,18.65
2018-08-10T00:55:33.722Z,18.98
2018-08-10T00:58:36.975Z,18.89
2018-08-10T01:01:40.135Z,19.25
2018-08-10T01:04:43.323Z,18.98
2018-08-10T01:07:46.474Z,19.07
2018-08-10T01:10:49.665Z,18.98
2018-08-10T01:13:52.754Z,19.27
2018-08-10T01:16:55.876Z,19.23
2018-08-10T01:19:59.096Z,19.21
2018-08-10T01:23:07.134Z,19.45
2018-08-10T01:26:10.259Z,18.94
2018-08-10T01:29:13.425Z,19.04
2018-08-10T01:32:16.530Z,19.21
2018-08-10T01:35:19.693Z,19.29
2018-08-10T01:38:22.991Z,19.07
2018-08-10T01:41:26.097Z,19.26
2018-08-10T01:44:29.230Z,19.18
2018-08-10T01:47:32.338Z,19.04
2018-08-10T01:50:35.465Z,18.92
2018-08-10T01:53:38.614Z,19.26
2018-08-10T01:56:41.794Z,19.42
2018-08-10T01:59:44.851Z,19.03
2018-08-10T02:02:48.055Z,18.86
2018-08-10T02:05:51.110Z,18.93
2018-08-10T02:08:54.244Z,18.82
2018-08-10T02:11:57.277Z,18.79
2018-08-10T02:15:00.492Z,19.06
2018-08-10T02:18:03.838Z,18.70
2018-08-10T02:21:07.223Z,19.13
2018-08-10T02:24:10.346Z,19.35
2018-08-10T02:27:14.079Z,19.23
2018-08-10T02:30:18.555Z,19.23
2018-08-10T02:33:21.803Z,18.72
2018-08-10T02:36:24.803Z,18.36
2018-08-10T02:39:27.954Z,19.02
2018-08-10T02:42:37.168Z,18.34
2018-08-10T02:46:01.147Z,18.40
2018-08-10T02:49:05.995Z,18.52
2018-08-10T02:52:09.382Z,18.30
2018-08-10T02:55:13.135Z,18.31
2018-08-10T02:58:16.250Z,18.27
2018-08-10T03:01:19.367Z,18.33
2018-08-10T03:04:22.569Z,18.33
2018-08-10T03:07:25.745Z,18.13
2018-08-10T03:10:28.882Z,18.29
2018-08-10T03:13:32.011Z,18.48
2018-08-10T03:16:35.280Z,18.08
2018-08-10T03:19:38.443Z,18.12
2018-08-10T03:22:41.626Z,18.23
2018-08-10T03:25:44.763Z,18.30
2018-08-10T03:28:47.955Z,18.18
2018-08-10T03:31:51.104Z,18.56
2018-08-10T03:34:54.198Z,18.52
2018-08-10T03:37:57.290Z,18.30
2018-08-10T03:41:00.579Z,18.06
2018-08-10T03:44:03.771Z,18.36
2018-08-10T03:47:06.874Z,18.12
2018-08-10T03:50:12.615Z,18.41
2018-08-10T03:53:15.770Z,18.24
2018-08-10T03:56:18.859Z,18.24
2018-08-10T03:59:21.950Z,18.48
2018-08-10T04:02:25.166Z,18.15
2018-08-10T04:05:28.389Z,18.40
2018-08-10T04:08:31.482Z,18.17
2018-08-10T04:11:34.645Z,18.39
2018-08-10T04:14:37.879Z,18.38
2018-08-10T04:17:41.249Z,18.51
2018-08-10T04:20:44.390Z,18.18
2018-08-10T04:23:47.542Z,18.41
2018-08-10T04:26:50.642Z,18.04
2018-08-10T04:29:53.814Z,18.08
2018-08-10T04:32:57.021Z,17.69
2018-08-10T04:36:01.392Z,17.94
2018-08-10T04:39:09.603Z,17.80
2018-08-10T04:42:12.734Z,18.09
2018-08-10T04:45:16.000Z,17.76
2018-08-10T04:48:19.199Z,17.60
2018-08-10T04:51:22.210Z,17.84
2018-08-10T04:54:25.343Z,17.97
2018-08-10T04:57:28.513Z,17.66
2018-08-10T05:00:31.656Z,17.82
2018-08-10T05:03:34.897Z,17.62
2018-08-10T05:06:38.009Z,17.87
2018-08-10T05:09:41.105Z,17.55
2018-08-10T05:12:45.386Z,17.92
2018-08-10T05:15:49.144Z,17.67
2018-08-10T05:18:52.346Z,17.64
2018-08-10T05:21:56.811Z,17.91
2018-08-10T05:25:01.188Z,17.91
2018-08-10T05:28:06.997Z,17.86
2018-08-10T05:31:12.841Z,18.04
2018-08-10T05:34:17.819Z,17.94
2018-08-10T05:37:21.323Z,17.66
2018-08-10T05:40:25.543Z,17.95
2018-08-10T05:43:29.513Z,18.15
2018-08-10T05:46:32.687Z,17.98
2018-08-10T05:49:36.656Z,17.77
2018-08-10T05:52:41.538Z,18.18
2018-08-10T05:55:46.549Z,17.79
2018-08-10T05:58:49.726Z,17.97
2018-08-10T06:01:52.958Z,18.01
2018-08-10T06:04:56.834Z,18.14
2018-08-10T06:07:59.944Z,18.08
2018-08-10T06:11:09.911Z,18.24
2018-08-10T06:14:13.904Z,18.34
2018-08-10T06:17:16.836Z,18.19
2018-08-10T06:20:19.802Z,18.03
2018-08-10T06:23:22.883Z,17.97
2018-08-10T06:26:25.879Z,18.03
2018-08-10T06:29:29.039Z,18.31
2018-08-10T06:32:32.099Z,18.18
2018-08-10T06:35:35.085Z,18.36
2018-08-10T06:38:38.126Z,18.29
2018-08-10T06:41:41.197Z,18.25
2018-08-10T06:44:44.202Z,18.40
2018-08-10T06:47:47.112Z,18.50
2018-08-10T06:50:50.054Z,18.62
2018-08-10T06:53:53.008Z,18.63
2018-08-10T06:56:55.993Z,18.61
2018-08-10T06:59:59.081Z,18.52
2018-08-10T07:03:05.294Z,18.67
2018-08-10T07:06:08.388Z,18.65
2018-08-10T07:09:12.537Z,18.85
2018-08-10T07:12:15.638Z,18.78
2018-08-10T07:15:18.703Z,18.72
2018-08-10T07:18:22.147Z,18.66
2018-08-10T07:21:25.187Z,18.67
2018-08-10T07:24:28.106Z,18.84
2018-08-10T07:27:31.227Z,18.88
2018-08-10T07:30:34.412Z,18.96
2018-08-10T07:33:37.349Z,19.01
2018-08-10T07:36:40.289Z,19.13
2018-08-10T07:39:43.476Z,19.05
2018-08-10T07:42:46.491Z,18.98
2018-08-10T07:45:49.496Z,18.78
2018-08-10T07:48:52.659Z,19.07
2018-08-10T07:51:55.741Z,18.92
2018-08-10T07:54:58.825Z,19.14
2018-08-10T07:58:01.879Z,19.25
2018-08-10T08:01:04.963Z,19.00
2018-08-10T08:04:08.638Z,18.84
2018-08-10T08:07:11.705Z,19.23
2018-08-10T08:10:14.723Z,19.16
2018-08-10T08:13:17.655Z,19.41
2018-08-10T08:16:20.619Z,19.50
2018-08-10T08:19:23.655Z,19.58
2018-08-10T08:22:26.646Z,19.54
2018-08-10T08:25:29.790Z,19.47
2018-08-10T08:28:33.230Z,19.91
2018-08-10T08:31:36.264Z,20.23
2018-08-10T08:34:39.569Z,19.79
2018-08-10T08:37:42.536Z,19.60
2018-08-10T08:40:48.102Z,19.49
2018-08-10T08:44:34.966Z,19.46
2018-08-10T08:47:38.190Z,19.75
2018-08-10T08:50:42.566Z,20.05
2018-08-10T08:53:45.599Z,20.21
2018-08-10T08:56:51.621Z,20.17
2018-08-10T08:59:54.589Z,20.43
2018-08-10T09:02:57.650Z,20.47
2018-08-10T09:06:01.627Z,20.51
2018-08-10T09:09:40.264Z,20.45
2018-08-10T09:12:43.246Z,20.55
2018-08-10T09:15:46.164Z,20.64
2018-08-10T09:18:49.357Z,20.68
2018-08-10T09:21:52.298Z,20.52
2018-08-10T09:24:55.302Z,20.34
2018-08-10T09:27:58.352Z,20.72
2018-08-10T09:31:01.335Z,20.76
2018-08-10T09:34:04.306Z,21.10
2018-08-10T09:37:08.469Z,21.06
2018-08-10T09:40:17.196Z,21.08
2018-08-10T09:43:20.195Z,21.25
2018-08-10T09:46:23.210Z,21.29
2018-08-10T09:49:33.931Z,21.06
2018-08-10T09:52:39.987Z,20.71
2018-08-10T09:55:42.941Z,20.93
2018-08-10T09:58:45.951Z,21.05
2018-08-10T10:01:54.804Z,21.19
2018-08-10T10:04:57.787Z,20.56
2018-08-10T10:08:01.181Z,20.44
2018-08-10T10:11:04.334Z,20.38
2018-08-10T10:14:08.238Z,21.10
2018-08-10T10:17:11.310Z,21.61
2018-08-10T10:20:14.636Z,21.43
2018-08-10T10:23:17.718Z,21.40
2018-08-10T10:26:20.811Z,21.78
2018-08-10T10:29:23.919Z,21.91
2018-08-10T10:32:27.140Z,21.58
2018-08-10T10:35:30.345Z,21.15
2018-08-10T10:38:33.416Z,20.85
2018-08-10T10:41:36.572Z,20.81
2018-08-10T10:44:39.614Z,20.97
2018-08-10T10:47:43.822Z,20.81
2018-08-10T10:50:47.034Z,21.46
2018-08-10T10:53:50.110Z,21.62
2018-08-10T10:56:53.294Z,22.23
2018-08-10T10:59:57.052Z,22.08
2018-08-10T11:03:00.165Z,22.12
2018-08-10T11:06:10.180Z,22.15
2018-08-10T11:09:13.279Z,22.31
2018-08-10T11:12:16.514Z,22.70
2018-08-10T11:15:19.598Z,22.85
2018-08-10T11:18:22.757Z,23.05
2018-08-10T11:21:25.906Z,22.64
2018-08-10T11:24:28.986Z,23.12
2018-08-10T11:27:32.205Z,22.91
2018-08-10T11:30:35.389Z,22.88
2018-08-10T11:33:38.523Z,23.38
2018-08-10T11:36:41.729Z,23.39
2018-08-10T11:39:44.780Z,23.39
2018-08-10T11:42:49.897Z,23.02
2018-08-10T11:45:53.556Z,23.28
2018-08-10T11:48:57.385Z,23.06
2018-08-10T11:52:00.856Z,23.46
2018-08-10T11:55:04.599Z,23.80
2018-08-10T11:58:14.381Z,23.33
2018-08-10T12:01:17.542Z,23.61
2018-08-10T12:04:20.722Z,23.55
2018-08-10T12:07:23.949Z,23.39
2018-08-10T12:10:27.216Z,23.22
2018-08-10T12:13:30.455Z,23.02
2018-08-10T12:16:33.898Z,22.77
2018-08-10T12:19:37.130Z,22.93
2018-08-10T12:22:41.170Z,22.90
2018-08-10T12:25:44.238Z,23.24
2018-08-10T12:28:47.324Z,22.79
2018-08-10T12:31:50.572Z,22.45
2018-08-10T12:34:53.626Z,22.35
2018-08-10T12:37:56.762Z,22.10
2018-08-10T12:41:00.026Z,22.15
2018-08-10T12:44:03.173Z,22.17
2018-08-10T12:47:06.414Z,23.06
2018-08-10T12:50:09.802Z,22.98
2018-08-10T12:53:12.994Z,23.02
2018-08-10T12:56:16.122Z,23.57
2018-08-10T12:59:19.255Z,23.47
2018-08-10T13:02:22.300Z,23.87
2018-08-10T13:05:25.386Z,23.46
2018-08-10T13:08:28.596Z,22.79
2018-08-10T13:11:31.678Z,22.53
2018-08-10T13:14:34.802Z,23.28
2018-08-10T13:17:37.933Z,24.42
2018-08-10T13:20:41.017Z,24.03
2018-08-10T13:23:44.177Z,23.29
2018-08-10T13:26:47.238Z,22.87
2018-08-10T13:29:50.288Z,22.45
2018-08-10T13:32:53.424Z,22.74
2018-08-10T13:35:56.562Z,22.66
2018-08-10T13:38:59.668Z,23.01
2018-08-10T13:42:02.903Z,23.77
2018-08-10T13:45:09.599Z,24.56
2018-08-10T13:48:12.731Z,23.82
2018-08-10T13:51:15.879Z,24.19
2018-08-10T13:54:18.988Z,24.59
2018-08-10T13:57:22.074Z,25.20
2018-08-10T14:00:25.533Z,25.23
2018-08-10T14:03:28.784Z,25.56
2018-08-10T14:06:31.959Z,25.85
2018-08-10T14:09:35.114Z,25.81
2018-08-10T14:12:38.181Z,25.62
2018-08-10T14:15:41.343Z,26.03
2018-08-10T14:18:44.450Z,26.30
2018-08-10T14:21:47.554Z,25.58
2018-08-10T14:24:50.679Z,25.37
2018-08-10T14:27:53.763Z,26.04
2018-08-10T14:30:56.915Z,25.05
2018-08-10T14:34:00.078Z,24.68
2018-08-10T14:37:03.543Z,25.82
2018-08-10T14:40:10.227Z,25.46
2018-08-10T14:43:13.725Z,25.18
2018-08-10T14:46:17.029Z,25.42
2018-08-10T14:49:20.343Z,25.27
2018-08-10T14:52:23.710Z,25.58
2018-08-10T14:55:27.141Z,25.32
2018-08-10T14:58:31.722Z,25.72
2018-08-10T15:01:35.366Z,25.50
2018-08-10T15:04:38.939Z,25.99
2018-08-10T15:07:42.704Z,24.93
2018-08-10T15:10:52.663Z,24.29
2018-08-10T15:13:55.927Z,24.76
2018-08-10T15:16:59.284Z,24.88
2018-08-10T15:20:02.728Z,24.67
2018-08-10T15:23:05.890Z,24.50
2018-08-10T15:26:09.207Z,24.16
2018-08-10T15:29:19.353Z,23.83
2018-08-10T15:32:22.652Z,23.41
2018-08-10T15:35:25.983Z,23.53
2018-08-10T15:38:29.868Z,23.55
2018-08-10T15:41:33.091Z,24.06
2018-08-10T15:44:36.480Z,23.59
2018-08-10T15:47:40.076Z,23.65
2018-08-10T15:50:43.535Z,23.54
2018-08-10T15:53:46.802Z,23.43
2018-08-10T15:57:59.988Z,23.16
2018-08-10T16:01:03.621Z,23.29
2018-08-10T16:04:07.366Z,22.87
2018-08-10T16:07:10.698Z,23.19
2018-08-10T16:10:14.062Z,23.20
2018-08-10T16:13:17.439Z,23.23
2018-08-10T16:16:20.823Z,23.22
2018-08-10T16:19:24.612Z,23.19
2018-08-10T16:22:27.872Z,23.17
2018-08-10T16:25:31.381Z,23.14
2018-08-10T16:28:34.838Z,23.29
2018-08-10T16:31:38.179Z,23.25
2018-08-10T16:34:41.596Z,23.04
2018-08-10T16:37:46.188Z,22.95
2018-08-10T16:40:49.304Z,23.04
2018-08-10T16:43:52.584Z,23.09
2018-08-10T16:46:55.765Z,23.05
2018-08-10T16:49:59.236Z,23.19
2018-08-10T16:53:02.543Z,23.03
2018-08-10T16:56:06.084Z,23.11
2018-08-10T16:59:11.682Z,23.04
2018-08-10T17:02:15.100Z,23.11
2018-08-10T17:05:18.752Z,23.14
2018-08-10T17:08:22.374Z,23.07
2018-08-10T17:11:25.780Z,23.14
2018-08-10T17:14:29.281Z,23.15
2018-08-10T17:17:32.775Z,23.18
2018-08-10T17:20:36.154Z,23.09
2018-08-10T17:23:40.169Z,23.04
2018-08-10T17:26:43.571Z,23.09
2018-08-10T17:29:46.854Z,23.09
2018-08-10T17:32:50.061Z,22.89
2018-08-10T17:36:00.304Z,22.94
2018-08-10T17:39:08.346Z,22.85
2018-08-10T17:42:11.613Z,22.84
2018-08-10T17:45:16.390Z,22.68
2018-08-10T17:48:20.000Z,22.83
2018-08-10T17:51:30.025Z,22.86
2018-08-10T17:54:33.411Z,22.81
2018-08-10T17:57:36.900Z,22.80
2018-08-10T18:00:40.216Z,22.75
2018-08-10T18:03:43.689Z,22.71
2018-08-10T18:06:47.863Z,22.72
2018-08-10T18:09:51.291Z,22.65
2018-08-10T18:12:54.761Z,22.77
2018-08-10T18:15:58.180Z,22.84
2018-08-10T18:19:01.644Z,22.66
2018-08-10T18:22:05.243Z,22.55
2018-08-10T18:25:11.067Z,22.50
2018-08-10T18:28:14.886Z,22.52
2018-08-10T18:31:19.202Z,22.43
2018-08-10T18:34:23.473Z,22.44
2018-08-10T18:37:26.935Z,22.49
2018-08-10T18:40:30.416Z,22.47
2018-08-10T18:43:33.763Z,22.42
2018-08-10T18:46:38.412Z,22.36
2018-08-10T18:49:41.691Z,22.26
2018-08-10T18:52:45.261Z,22.29
2018-08-10T18:55:48.720Z,22.13
2018-08-10T18:58:52.763Z,22.03
2018-08-10T19:01:56.006Z,21.90
2018-08-10T19:04:59.409Z,21.85
2018-08-10T19:08:02.567Z,21.80
2018-08-10T19:11:06.093Z,21.67
2018-08-10T19:14:09.743Z,21.61
2018-08-10T19:17:13.010Z,21.63
2018-08-10T19:20:16.467Z,21.55
2018-08-10T19:23:19.740Z,21.62
2018-08-10T19:26:23.264Z,21.66
2018-08-10T19:29:26.401Z,21.43
2018-08-10T19:32:29.619Z,21.39
2018-08-10T19:35:32.741Z,21.27
2018-08-10T19:38:36.170Z,21.09
2018-08-10T19:41:39.591Z,21.05
2018-08-10T19:44:43.232Z,21.17
2018-08-10T19:47:46.526Z,20.91
2018-08-10T19:50:49.732Z,20.94
2018-08-10T19:53:53.155Z,20.93
2018-08-10T19:56:56.567Z,20.83
2018-08-10T19:59:59.857Z,20.98
2018-08-10T20:03:03.911Z,20.91
2018-08-10T20:06:07.351Z,20.69
2018-08-10T20:09:12.564Z,20.74
2018-08-10T20:12:16.104Z,20.72
2018-08-10T20:15:19.487Z,20.70
2018-08-10T20:18:22.874Z,20.61
2018-08-10T20:21:26.205Z,20.72
2018-08-10T20:24:29.491Z,20.67
2018-08-10T20:27:33.466Z,20.70
2018-08-10T20:30:36.953Z,20.50
2018-08-10T20:33:45.666Z,20.47
2018-08-10T20:36:50.554Z,20.47
2018-08-10T20:39:53.981Z,20.38
2018-08-10T20:42:57.501Z,20.23
2018-08-10T20:46:01.111Z,20.11
2018-08-10T20:49:05.189Z,20.21
2018-08-10T20:52:08.797Z,20.06
2018-08-10T20:55:12.271Z,20.19
2018-08-10T20:58:16.139Z,20.00
2018-08-10T21:01:19.490Z,19.79
2018-08-10T21:04:22.769Z,20.07
2018-08-10T21:07:25.774Z,20.06
2018-08-10T21:10:28.825Z,20.12
2018-08-10T21:13:31.922Z,19.95
2018-08-10T21:16:34.962Z,19.79
2018-08-10T21:20:00.689Z,19.87
2018-08-10T21:23:05.589Z,19.91
2018-08-10T21:26:10.519Z,20.09
2018-08-10T21:29:14.733Z,19.85
2018-08-10T21:32:18.257Z,19.96
2018-08-10T21:35:23.440Z,20.02
2018-08-10T21:38:26.476Z,20.21
2018-08-10T21:41:29.590Z,20.21
2018-08-10T21:44:32.720Z,20.25
2018-08-10T21:47:36.411Z,20.27
2018-08-10T21:50:39.641Z,20.00
2018-08-10T21:53:42.733Z,20.03
2018-08-10T21:56:45.820Z,20.05
2018-08-10T21:59:48.969Z,20.18
2018-08-10T22:02:52.113Z,20.26
2018-08-10T22:05:56.120Z,20.13
2018-08-10T22:08:59.534Z,20.29
2018-08-10T22:12:02.640Z,20.22
2018-08-10T22:15:12.322Z,20.08
2018-08-10T22:18:21.161Z,20.18
2018-08-10T22:21:24.190Z,20.25
2018-08-10T22:24:27.267Z,20.29
2018-08-10T22:27:30.320Z,20.01
2018-08-10T22:30:33.477Z,20.15
2018-08-10T22:33:36.566Z,20.25
2018-08-10T22:36:39.880Z,20.19
2018-08-10T22:39:42.934Z,20.09
2018-08-10T22:42:46.072Z,20.12
2018-08-10T22:45:49.164Z,20.15
2018-08-10T22:48:52.326Z,20.35
2018-08-10T22:51:55.443Z,20.29
2018-08-10T22:54:58.572Z,20.18
2018-08-10T22:58:01.681Z,20.27
2018-08-10T23:01:04.966Z,20.19
2018-08-10T23:04:08.258Z,20.22
2018-08-10T23:07:11.503Z,20.11
2018-08-10T23:10:15.157Z,19.81
2018-08-10T23:13:18.425Z,20.02
2018-08-10T23:16:21.545Z,20.11
2018-08-10T23:19:24.583Z,20.21
2018-08-10T23:22:27.696Z,20.11
2018-08-10T23:25:30.993Z,20.14
2018-08-10T23:28:34.103Z,20.11
2018-08-10T23:31:37.214Z,20.30
2018-08-10T23:34:40.314Z,20.13
2018-08-10T23:37:43.345Z,20.14
2018-08-10T23:40:46.499Z,19.91
2018-08-10T23:43:49.658Z,19.92
2018-08-10T23:46:52.727Z,20.17
2018-08-10T23:49:55.915Z,19.76
2018-08-10T23:52:59.040Z,19.86
2018-08-10T23:56:02.137Z,20.04
2018-08-10T23:59:05.184Z,19.82
